FNKU

Details ICAO FNKU (SVP)
Name KUITO
Region Angola
Timezone Africa/Luanda (UTC+1.0)
Plans Departing 2
Arriving 3
Stats Elevation 5,618 ft / 1,712 m (AMSL)
Location -12.404633° 16.947412°
Runways 1
Magnetic Variation 3.861° W
Sunrise 2018-05-25 05:06:13 UTC / 2018-05-25 06:06:13 Local
Sunset 2018-05-25 16:34:56 UTC / 2018-05-25 17:34:56 Local
Advertisement - Login to hide

Runways

ID Width Length Bearing (true) Bearing (mag) Surface Threshold Offset Overrun Length
08 98 ft / 30 m 8,216 ft / 2,504 m 69.49° 73.35° Asphalt 0 ft / 0 m 0 ft / 0 m
26 98 ft / 30 m 8,216 ft / 2,504 m 249.49° 253.35° Asphalt 0 ft / 0 m 0 ft / 0 m

Map

Weather


0- 5 10 15 20 25 30 35+ Temperature / ° C

Clouds and Precipitation
Forecast for 2018-05-25 12:00 UTC. Updated 15 minutes ago

Ground ~20,000 ft ~40,000 ft Winds

METAR

FNKU 250900Z 08010KT CAVOK 21/16 Q1023

TAF

Not found

Frequencies

Tower 118.70 MHz AFIS
Warning: Do not use this data for real-world aviation or navigation. No guarantee of current accuracy is given.